Fortuneswell, United Kingdom
Current Conditions -  °F | °C
As of 10:50 PM on Thursday 18 Dec 2014 (Local Time) from EGHH Reporting Station
Overcast Overcast  
Wind Chill: 55°   Ceiling: 1000
Heat Index: 55°   Visibility: 6mi
Dew Point: 52°   Wind: 26mph
Humidity: 88%   Direction: 250°WSW
Pressure: 29.91"   Gusts: 38mph
Location:  50.56°N, 2.44°W
Report Text: EGHH 182250Z 25023G33KT 9999 OVC010 13/11 Q1013
Loading
Personal Weather Stations






























Interactive Weather Map New forecast layout! Learn more

10-Day Weather Forecast

Advertisements
Track Severe Weather on mobile